Time;durP1;ratioP1;P1;durP2;ratioP2;P2;SDS_P1;SDS_P2;PMS_P1;PMS_P2;Temp;Humidity;BMP_temperature;BMP_pressure;BME280_temperature;BME280_humidity;BME280_pressure;Samples;Min_cycle;Max_cycle;Signal;HPM_P1;HPM_P2
2022/08/21 00:01:50;;;;;;;3.23;2.93;;;16.80;99.90;;;;;;5043679;28;20465;-85
2022/08/21 00:04:18;;;;;;;3.70;2.93;;;16.80;99.90;;;;;;5044511;28;20483;-85
2022/08/21 00:06:45;;;;;;;3.13;2.73;;;16.80;99.90;;;;;;5044918;28;20811;-85
2022/08/21 00:09:12;;;;;;;2.90;2.70;;;16.60;99.90;;;;;;5043802;28;20454;-85
2022/08/21 00:11:39;;;;;;;3.30;3.10;;;16.70;99.90;;;;;;5044650;28;20479;-85
2022/08/21 00:14:09;;;;;;;5.23;3.00;;;16.60;99.90;;;;;;5044512;28;20474;-85
2022/08/21 00:16:35;;;;;;;6.20;4.00;;;16.50;99.90;;;;;;5045625;28;20456;-85
2022/08/21 00:19:03;;;;;;;3.50;3.20;;;16.60;99.90;;;;;;5047430;28;20454;-85
2022/08/21 00:21:31;;;;;;;4.80;2.60;;;16.60;99.90;;;;;;5047564;28;20446;-85
2022/08/21 00:23:58;;;;;;;2.77;2.57;;;16.60;99.90;;;;;;5044975;28;20471;-85
2022/08/21 00:26:24;;;;;;;3.20;2.90;;;16.60;99.90;;;;;;5045318;28;20452;-85
2022/08/21 00:28:51;;;;;;;3.07;2.87;;;16.50;99.90;;;;;;5044578;28;20454;-84
2022/08/21 00:31:18;;;;;;;2.83;2.63;;;16.50;99.90;;;;;;5044926;28;20971;-85
2022/08/21 00:33:46;;;;;;;3.30;3.10;;;16.50;99.90;;;;;;5044464;28;20479;-84
2022/08/21 00:36:13;;;;;;;3.90;3.70;;;16.30;99.90;;;;;;5043702;28;20999;-85
2022/08/21 00:38:41;;;;;;;4.10;3.10;;;16.40;99.90;;;;;;5044419;28;20449;-85
2022/08/21 00:41:11;;;;;;;3.40;3.10;;;16.40;99.90;;;;;;5044145;28;20457;-85
2022/08/21 00:43:40;;;;;;;4.40;2.87;;;16.40;99.90;;;;;;5044091;28;20474;-85
2022/08/21 00:46:07;;;;;;;2.87;2.67;;;16.40;99.90;;;;;;5044507;28;20438;-85
2022/08/21 00:48:35;;;;;;;3.87;2.80;;;16.40;99.90;;;;;;5043508;28;20454;-85
2022/08/21 00:51:07;;;;;;;3.33;3.03;;;16.30;99.90;;;;;;5044467;28;20455;-85
2022/08/21 00:53:38;;;;;;;2.90;2.60;;;16.30;99.90;;;;;;5044451;28;20473;-84
2022/08/21 00:56:09;;;;;;;6.27;3.07;;;16.20;99.90;;;;;;5044971;28;20486;-85
2022/08/21 00:58:38;;;;;;;5.90;2.93;;;16.20;99.90;;;;;;5044041;28;20947;-85
2022/08/21 01:01:07;;;;;;;2.57;2.37;;;16.10;99.90;;;;;;5044060;28;20461;-85
2022/08/21 01:03:34;;;;;;;3.50;3.20;;;16.20;99.90;;;;;;5043836;28;20475;-85
2022/08/21 01:06:02;;;;;;;3.10;2.80;;;16.20;99.90;;;;;;5044209;28;20449;-86
2022/08/21 01:08:29;;;;;;;2.90;2.50;;;16.20;99.90;;;;;;5043873;28;20451;-85
2022/08/21 01:10:59;;;;;;;4.63;3.37;;;16.10;99.90;;;;;;5043694;28;20454;-84
2022/08/21 01:13:30;;;;;;;4.33;3.73;;;16.10;99.90;;;;;;5042908;28;20480;-85
2022/08/21 01:15:59;;;;;;;4.40;3.30;;;16.10;99.90;;;;;;5043746;28;20492;-85
2022/08/21 01:18:26;;;;;;;3.10;2.73;;;16.00;99.90;;;;;;5043340;28;20495;-85
2022/08/21 01:21:06;;;;;;;3.80;3.50;;;15.90;99.90;;;;;;5043504;28;20450;-85
2022/08/21 01:23:33;;;;;;;5.57;4.10;;;15.90;99.90;;;;;;5044184;28;20497;-84
2022/08/21 01:26:00;;;;;;;4.40;4.10;;;15.90;99.90;;;;;;5044065;28;20445;-85
2022/08/21 01:28:30;;;;;;;5.20;4.00;;;15.90;99.90;;;;;;5042948;28;20450;-85
2022/08/21 01:30:57;;;;;;;3.93;3.73;;;15.90;99.90;;;;;;5043776;28;20458;-85
2022/08/21 01:33:26;;;;;;;5.80;3.03;;;15.90;99.90;;;;;;5043051;28;20481;-85
2022/08/21 01:35:52;;;;;;;5.50;3.80;;;15.90;99.90;;;;;;5043473;28;20478;-85
2022/08/21 01:38:20;;;;;;;6.27;4.27;;;15.90;99.90;;;;;;5043773;28;20449;-84
2022/08/21 01:40:47;;;;;;;5.10;3.57;;;15.80;99.90;;;;;;5044287;28;20506;-85
2022/08/21 01:43:14;;;;;;;3.50;3.10;;;15.70;99.90;;;;;;5043494;28;20838;-85
2022/08/21 01:45:41;;;;;;;3.27;3.03;;;15.80;99.90;;;;;;5043105;28;20452;-86
2022/08/21 01:48:08;;;;;;;4.83;3.00;;;15.80;99.90;;;;;;5042319;28;20455;-84
2022/08/21 01:50:34;;;;;;;3.53;3.23;;;15.80;99.90;;;;;;5042895;28;20447;-85
2022/08/21 01:53:01;;;;;;;3.97;3.57;;;15.80;99.90;;;;;;5043122;28;20496;-85
2022/08/21 01:55:29;;;;;;;4.70;3.90;;;15.80;99.90;;;;;;5043711;28;20500;-84
2022/08/21 01:57:57;;;;;;;3.90;3.07;;;15.80;99.90;;;;;;5042352;28;20449;-85
2022/08/21 02:00:24;;;;;;;5.50;3.90;;;15.80;99.90;;;;;;5042492;28;20446;-84
2022/08/21 02:02:51;;;;;;;3.17;2.93;;;15.70;99.90;;;;;;5043199;28;20458;-85
2022/08/21 02:05:18;;;;;;;5.07;3.93;;;15.60;99.90;;;;;;5043442;28;20823;-83
2022/08/21 02:07:47;;;;;;;3.80;3.60;;;15.60;99.90;;;;;;5042953;28;20455;-84
2022/08/21 02:10:18;;;;;;;4.13;3.60;;;15.70;99.90;;;;;;5044497;28;20454;-82
2022/08/21 02:12:47;;;;;;;4.47;4.10;;;15.60;99.90;;;;;;5045866;28;20446;-83
2022/08/21 02:15:14;;;;;;;6.03;3.90;;;15.60;99.90;;;;;;5042825;28;20489;-84
2022/08/21 02:17:42;;;;;;;5.83;3.40;;;15.60;99.90;;;;;;5042670;28;20455;-84
2022/08/21 02:20:11;;;;;;;4.80;3.87;;;15.50;99.90;;;;;;5043428;28;20446;-84
2022/08/21 02:22:37;;;;;;;3.80;3.60;;;15.60;99.90;;;;;;5042252;28;20457;-84
2022/08/21 02:25:05;;;;;;;4.00;3.70;;;15.50;99.90;;;;;;5042742;28;20454;-85
2022/08/21 02:27:39;;;;;;;4.13;3.63;;;15.50;99.90;;;;;;5043179;28;20671;-82
2022/08/21 02:30:09;;;;;;;3.70;3.20;;;15.50;99.90;;;;;;5043261;28;20449;-84
2022/08/21 02:32:36;;;;;;;3.60;3.27;;;15.50;99.90;;;;;;5044072;28;20451;-83
2022/08/21 02:35:03;;;;;;;5.47;3.53;;;15.50;99.90;;;;;;5042553;28;20516;-83
2022/08/21 02:37:29;;;;;;;3.70;3.40;;;15.50;99.90;;;;;;5042759;28;20447;-84
2022/08/21 02:39:56;;;;;;;5.80;4.03;;;15.40;99.90;;;;;;5042781;28;20447;-86
2022/08/21 02:42:23;;;;;;;3.90;3.70;;;15.40;99.90;;;;;;5043119;28;20455;-83
2022/08/21 02:44:50;;;;;;;3.13;2.93;;;15.40;99.90;;;;;;5042666;28;20484;-84
2022/08/21 02:47:18;;;;;;;3.83;3.57;;;15.40;99.90;;;;;;5042908;28;20447;-84
2022/08/21 02:49:45;;;;;;;4.17;3.87;;;15.30;99.90;;;;;;5042797;28;20832;-84
2022/08/21 02:52:11;;;;;;;4.00;3.70;;;15.30;99.90;;;;;;5042377;28;21028;-84
2022/08/21 02:54:38;;;;;;;3.70;3.40;;;15.30;99.90;;;;;;5042913;28;20473;-84
2022/08/21 02:57:05;;;;;;;3.60;3.30;;;15.30;99.90;;;;;;5042568;28;20485;-84
2022/08/21 02:59:32;;;;;;;3.40;3.10;;;15.30;99.90;;;;;;5042887;28;20798;-84
2022/08/21 03:01:58;;;;;;;4.43;3.90;;;15.30;99.90;;;;;;5042929;28;20446;-84
2022/08/21 03:04:26;;;;;;;3.97;3.47;;;15.20;99.90;;;;;;5042671;28;20479;-83
2022/08/21 03:06:53;;;;;;;5.53;2.73;;;15.20;99.90;;;;;;5042777;28;20446;-83
2022/08/21 03:09:20;;;;;;;4.27;3.87;;;15.20;99.90;;;;;;5041655;28;20453;-84
2022/08/21 03:11:47;;;;;;;3.10;2.90;;;15.20;99.90;;;;;;5042222;28;20456;-84
2022/08/21 03:14:13;;;;;;;3.80;3.07;;;15.10;99.90;;;;;;5042514;28;20509;-84
2022/08/21 03:16:40;;;;;;;3.80;3.50;;;15.10;99.90;;;;;;5041709;28;20485;-84
2022/08/21 03:19:07;;;;;;;3.63;3.33;;;15.10;99.90;;;;;;5041317;28;20450;-86
2022/08/21 03:21:35;;;;;;;5.40;3.53;;;15.10;99.90;;;;;;5041606;28;20455;-85
2022/08/21 03:24:02;;;;;;;4.63;3.93;;;15.00;99.90;;;;;;5041477;28;20477;-83
2022/08/21 03:26:29;;;;;;;5.80;3.70;;;15.00;99.90;;;;;;5040927;28;20459;-84
2022/08/21 03:28:57;;;;;;;4.40;4.10;;;15.00;99.90;;;;;;5041931;28;20847;-83
2022/08/21 03:31:26;;;;;;;5.30;2.93;;;15.00;99.90;;;;;;5041657;28;20479;-83
2022/08/21 03:33:54;;;;;;;3.83;3.37;;;14.90;99.90;;;;;;5042420;28;20575;-84
2022/08/21 03:36:21;;;;;;;4.70;3.90;;;14.90;99.90;;;;;;5045616;28;20492;-83
2022/08/21 03:38:50;;;;;;;3.50;3.20;;;14.90;99.90;;;;;;5045540;28;20462;-84
2022/08/21 03:41:17;;;;;;;5.00;3.80;;;14.80;99.90;;;;;;5045341;28;20457;-82
2022/08/21 03:43:43;;;;;;;5.70;3.50;;;14.80;99.90;;;;;;5045642;28;20482;-84
2022/08/21 03:46:11;;;;;;;3.50;3.30;;;14.80;99.90;;;;;;5045692;28;20445;-82
2022/08/21 03:48:40;;;;;;;4.00;3.70;;;14.80;99.90;;;;;;5045677;28;20452;-83
2022/08/21 03:51:07;;;;;;;3.60;3.40;;;14.70;99.90;;;;;;5046028;28;20451;-82
2022/08/21 03:53:36;;;;;;;4.20;3.80;;;14.70;99.90;;;;;;5045285;28;20475;-84
2022/08/21 03:56:05;;;;;;;5.00;4.03;;;14.70;99.90;;;;;;5045002;28;20499;-82
2022/08/21 03:58:32;;;;;;;5.20;4.20;;;14.70;99.90;;;;;;5044802;28;20453;-84
2022/08/21 04:01:01;;;;;;;3.60;3.37;;;14.70;99.90;;;;;;5047329;28;20647;-85
2022/08/21 04:03:28;;;;;;;10.03;5.23;;;14.60;99.90;;;;;;5048404;28;20466;-84
2022/08/21 04:05:55;;;;;;;3.13;2.90;;;14.60;99.90;;;;;;5047127;28;20463;-84
2022/08/21 04:08:22;;;;;;;3.60;3.40;;;14.60;99.90;;;;;;5045792;28;20461;-84
2022/08/21 04:10:52;;;;;;;4.20;3.90;;;14.60;99.90;;;;;;5045694;28;20457;-83
2022/08/21 04:13:21;;;;;;;3.70;3.40;;;14.60;99.90;;;;;;5045439;28;20473;-84
2022/08/21 04:15:48;;;;;;;4.70;4.40;;;14.60;99.90;;;;;;5045663;28;20485;-84
2022/08/21 04:18:14;;;;;;;3.20;3.00;;;14.60;99.90;;;;;;5045381;28;20460;-84
2022/08/21 04:20:44;;;;;;;3.90;3.60;;;14.50;99.90;;;;;;5045512;28;20453;-83
2022/08/21 04:23:11;;;;;;;3.67;3.37;;;14.50;99.90;;;;;;5045928;28;20477;-84
2022/08/21 04:25:38;;;;;;;4.43;4.13;;;14.50;99.90;;;;;;5045351;28;20445;-83
2022/08/21 04:28:05;;;;;;;4.23;3.97;;;14.40;99.90;;;;;;5044616;28;20970;-84
2022/08/21 04:30:33;;;;;;;8.90;4.30;;;14.50;99.90;;;;;;5045580;28;20455;-83
2022/08/21 04:35:29;;;;;;;5.07;4.57;;;14.40;99.90;;;;;;5035881;28;20469;-80
2022/08/21 04:37:57;;;;;;;4.13;3.83;;;14.40;99.90;;;;;;5036694;28;20446;-81
2022/08/21 04:40:26;;;;;;;3.67;3.37;;;14.40;99.90;;;;;;5037241;28;20813;-81
2022/08/21 04:42:55;;;;;;;5.03;4.20;;;14.40;99.90;;;;;;5037351;28;20449;-80
2022/08/21 04:45:25;;;;;;;4.10;3.70;;;14.30;99.90;;;;;;5037000;28;20496;-80
2022/08/21 04:47:55;;;;;;;5.57;3.73;;;14.10;99.90;;;;;;5036665;28;20441;-81
2022/08/21 04:50:26;;;;;;;5.83;4.37;;;14.00;99.90;;;;;;5037239;28;20445;-80
2022/08/21 04:52:53;;;;;;;4.70;3.87;;;14.00;99.90;;;;;;5037413;28;20458;-80
2022/08/21 04:55:20;;;;;;;5.20;4.40;;;14.00;99.90;;;;;;5036844;28;20468;-81
2022/08/21 04:57:49;;;;;;;4.60;4.30;;;13.80;99.90;;;;;;5036598;28;20485;-81
2022/08/21 05:00:18;;;;;;;4.67;4.23;;;13.80;99.90;;;;;;5037421;28;20453;-81
2022/08/21 05:02:46;;;;;;;4.50;4.10;;;13.80;99.90;;;;;;5036434;28;20459;-80
2022/08/21 05:05:15;;;;;;;4.63;4.07;;;13.90;99.90;;;;;;5036747;28;20478;-81
2022/08/21 05:07:44;;;;;;;4.03;3.73;;;14.00;99.90;;;;;;5036792;28;20445;-81
2022/08/21 05:10:11;;;;;;;6.23;5.67;;;14.00;99.90;;;;;;5036466;28;20493;-80
2022/08/21 05:12:39;;;;;;;4.87;4.30;;;13.90;99.90;;;;;;5036233;28;20828;-81
2022/08/21 05:15:06;;;;;;;5.30;4.80;;;14.00;99.90;;;;;;5036274;28;20479;-81
2022/08/21 05:17:33;;;;;;;8.13;3.80;;;14.00;99.90;;;;;;5036430;28;20488;-80
2022/08/21 05:20:00;;;;;;;5.03;4.63;;;14.10;99.90;;;;;;5036492;28;20984;-81
2022/08/21 05:22:28;;;;;;;3.70;3.40;;;14.20;99.90;;;;;;5036181;28;20453;-81
2022/08/21 05:24:55;;;;;;;7.80;4.50;;;14.30;99.90;;;;;;5036179;28;20478;-81
2022/08/21 05:27:21;;;;;;;5.53;3.90;;;14.40;99.90;;;;;;5036103;28;20450;-81
2022/08/21 05:29:48;;;;;;;5.40;4.93;;;14.40;99.90;;;;;;5035865;28;20449;-81
2022/08/21 05:32:15;;;;;;;4.63;3.83;;;14.50;99.90;;;;;;5036215;28;20456;-81
2022/08/21 05:34:42;;;;;;;3.80;3.50;;;14.60;99.90;;;;;;5036289;28;20484;-81
2022/08/21 05:37:12;;;;;;;4.53;4.23;;;14.60;99.90;;;;;;5036084;28;20489;-81
2022/08/21 05:39:40;;;;;;;3.97;3.70;;;14.70;99.90;;;;;;5035856;28;20441;-81
2022/08/21 05:42:07;;;;;;;6.93;3.97;;;14.80;99.90;;;;;;5036343;28;20458;-81
2022/08/21 05:44:34;;;;;;;4.53;4.13;;;14.90;99.90;;;;;;5036420;28;20498;-80
2022/08/21 05:47:05;;;;;;;4.83;3.77;;;14.90;99.90;;;;;;5035731;28;20503;-81
2022/08/21 05:49:32;;;;;;;3.87;3.30;;;15.10;99.90;;;;;;5035523;28;20447;-80
2022/08/21 05:51:58;;;;;;;4.43;4.03;;;15.10;99.90;;;;;;5036168;28;20449;-81
2022/08/21 05:54:25;;;;;;;5.17;4.40;;;15.10;99.90;;;;;;5036037;28;20470;-81
2022/08/21 05:56:53;;;;;;;3.90;3.60;;;15.10;99.90;;;;;;5036031;28;20870;-80
2022/08/21 05:59:20;;;;;;;4.43;4.13;;;15.30;99.90;;;;;;5034721;28;20451;-82
2022/08/21 06:01:47;;;;;;;4.93;4.63;;;15.40;99.90;;;;;;5035945;28;20461;-81
2022/08/21 06:04:14;;;;;;;5.07;4.13;;;15.40;99.90;;;;;;5035508;28;20486;-81
2022/08/21 06:06:41;;;;;;;5.70;5.17;;;15.40;99.90;;;;;;5035226;28;20455;-81
2022/08/21 06:09:08;;;;;;;4.77;4.30;;;15.50;99.90;;;;;;5035487;28;20680;-81
2022/08/21 06:11:35;;;;;;;4.63;4.20;;;15.60;99.90;;;;;;5036019;28;20453;-81
2022/08/21 06:14:03;;;;;;;4.20;3.90;;;15.80;99.90;;;;;;5035975;28;20474;-81
2022/08/21 06:16:30;;;;;;;4.13;3.73;;;15.90;99.90;;;;;;5035589;28;20481;-82
2022/08/21 06:18:57;;;;;;;6.73;3.80;;;16.10;99.90;;;;;;5034937;28;20790;-82
2022/08/21 06:21:24;;;;;;;4.53;4.13;;;16.20;99.90;;;;;;5035516;28;20969;-81
2022/08/21 06:23:51;;;;;;;3.97;3.67;;;16.30;99.90;;;;;;5035601;28;20471;-80
2022/08/21 06:26:17;;;;;;;5.10;3.63;;;16.40;99.90;;;;;;5035646;28;20473;-81
2022/08/21 06:28:44;;;;;;;4.97;4.63;;;16.60;99.90;;;;;;5035143;28;20462;-81
2022/08/21 06:31:15;;;;;;;5.97;4.30;;;16.70;99.90;;;;;;5036218;28;20443;-81
2022/08/21 06:33:42;;;;;;;5.20;3.80;;;16.80;99.90;;;;;;5035796;28;20831;-82
2022/08/21 06:36:09;;;;;;;3.70;3.10;;;16.90;99.90;;;;;;5035353;28;20451;-81
2022/08/21 06:38:36;;;;;;;3.23;2.93;;;17.00;99.90;;;;;;5034731;28;20455;-81
2022/08/21 06:41:03;;;;;;;9.50;4.17;;;17.10;99.90;;;;;;5035237;28;21004;-82
2022/08/21 06:43:29;;;;;;;4.07;3.77;;;17.20;99.90;;;;;;5035914;28;20548;-81
2022/08/21 06:45:57;;;;;;;4.80;4.40;;;17.30;99.90;;;;;;5035268;28;20469;-82
2022/08/21 06:48:25;;;;;;;4.10;3.80;;;17.30;99.90;;;;;;5035558;28;20457;-81
2022/08/21 06:50:52;;;;;;;4.70;4.40;;;17.50;99.90;;;;;;5035328;28;20455;-81
2022/08/21 06:53:21;;;;;;;4.40;4.10;;;17.60;99.90;;;;;;5035602;28;20535;-82
2022/08/21 06:55:49;;;;;;;4.97;4.37;;;17.70;99.90;;;;;;5035464;28;20455;-82
2022/08/21 06:58:16;;;;;;;3.87;3.57;;;17.80;99.90;;;;;;5034833;28;21020;-82
2022/08/21 07:00:46;;;;;;;6.40;3.60;;;17.90;99.90;;;;;;5034996;28;20831;-82
2022/08/21 07:03:26;;;;;;;4.03;3.73;;;18.10;99.90;;;;;;5035358;28;20463;-82
2022/08/21 07:05:53;;;;;;;5.37;4.30;;;18.20;99.90;;;;;;5035291;28;20457;-82
2022/08/21 07:08:21;;;;;;;5.00;3.30;;;18.30;99.90;;;;;;5035188;28;20444;-82
2022/08/21 07:10:49;;;;;;;4.60;4.20;;;18.40;99.90;;;;;;5037929;28;20460;-81
2022/08/21 07:13:16;;;;;;;5.93;4.10;;;18.50;99.90;;;;;;5038727;28;20458;-82
2022/08/21 07:15:44;;;;;;;4.57;4.27;;;18.60;99.90;;;;;;5038934;28;20987;-80
2022/08/21 07:18:11;;;;;;;4.83;4.43;;;18.60;99.90;;;;;;5039011;28;20565;-80
2022/08/21 07:20:40;;;;;;;6.17;4.13;;;18.70;99.90;;;;;;5039356;28;20525;-80
2022/08/21 07:23:10;;;;;;;6.47;4.13;;;18.90;99.90;;;;;;5039508;28;20462;-80
2022/08/21 07:25:37;;;;;;;4.60;4.30;;;19.10;99.90;;;;;;5039131;28;20562;-80
2022/08/21 07:28:04;;;;;;;6.50;5.00;;;19.20;99.90;;;;;;5038681;28;20445;-83
2022/08/21 07:30:31;;;;;;;3.80;3.40;;;19.20;99.90;;;;;;5038803;28;20456;-83
2022/08/21 07:32:58;;;;;;;4.50;4.10;;;19.40;99.90;;;;;;5038545;28;20479;-81
2022/08/21 07:35:25;;;;;;;5.10;4.10;;;19.30;99.90;;;;;;5038708;28;20464;-83
2022/08/21 07:37:53;;;;;;;4.60;4.20;;;19.40;99.90;;;;;;5038424;28;20488;-80
2022/08/21 07:40:20;;;;;;;6.47;4.60;;;19.60;99.90;;;;;;5038509;28;20454;-80
2022/08/21 07:42:51;;;;;;;5.23;4.40;;;19.70;99.80;;;;;;5038836;28;20441;-82
2022/08/21 07:45:19;;;;;;;5.67;3.90;;;19.80;98.90;;;;;;5038587;28;20564;-83
2022/08/21 07:47:46;;;;;;;5.30;4.67;;;19.90;98.60;;;;;;5038293;28;20453;-80
2022/08/21 07:50:13;;;;;;;4.80;4.40;;;19.90;98.50;;;;;;5038327;28;20449;-83
2022/08/21 07:52:41;;;;;;;8.83;4.53;;;20.00;98.10;;;;;;5038362;28;20452;-82
2022/08/21 07:55:12;;;;;;;7.00;4.40;;;20.20;98.40;;;;;;5038694;28;20513;-81
2022/08/21 07:57:39;;;;;;;6.70;5.00;;;20.20;98.30;;;;;;5038498;28;20543;-82
2022/08/21 08:00:10;;;;;;;5.23;4.80;;;20.30;98.10;;;;;;5038386;28;20453;-81
2022/08/21 08:02:37;;;;;;;7.37;4.87;;;20.50;97.90;;;;;;5038274;28;20508;-83
2022/08/21 08:05:05;;;;;;;5.17;4.60;;;20.60;97.50;;;;;;5037725;28;20477;-82
2022/08/21 08:07:32;;;;;;;4.77;4.37;;;20.70;97.50;;;;;;5038561;28;20457;-83
2022/08/21 08:09:59;;;;;;;3.87;3.53;;;20.90;96.00;;;;;;5038346;28;20458;-83
2022/08/21 08:12:29;;;;;;;5.20;4.20;;;20.90;95.90;;;;;;5037996;28;20500;-80
2022/08/21 08:14:56;;;;;;;5.33;3.97;;;20.90;95.80;;;;;;5038330;28;20572;-81
2022/08/21 08:17:23;;;;;;;5.60;4.30;;;20.90;95.40;;;;;;5037900;28;20565;-81
2022/08/21 08:19:50;;;;;;;6.53;5.93;;;20.90;95.70;;;;;;5037558;28;20449;-82
2022/08/21 08:22:19;;;;;;;3.97;3.67;;;21.00;95.40;;;;;;5037314;28;20451;-83
2022/08/21 08:24:46;;;;;;;4.40;4.00;;;21.10;94.30;;;;;;5037964;28;20466;-81
2022/08/21 08:27:12;;;;;;;5.43;4.27;;;21.20;94.00;;;;;;5038305;28;20439;-81
2022/08/21 08:29:40;;;;;;;6.23;4.20;;;21.30;93.60;;;;;;5037356;28;20451;-82
2022/08/21 08:32:08;;;;;;;5.47;4.87;;;21.40;94.50;;;;;;5037396;28;20457;-82
2022/08/21 08:34:34;;;;;;;4.70;4.23;;;21.50;94.00;;;;;;5037131;28;20481;-82
2022/08/21 08:37:02;;;;;;;5.10;4.13;;;21.60;94.00;;;;;;5037836;28;20461;-82
2022/08/21 08:39:29;;;;;;;6.43;4.40;;;21.70;92.90;;;;;;5037652;28;20960;-83
2022/08/21 08:42:03;;;;;;;5.53;4.77;;;21.70;92.50;;;;;;5037812;28;20458;-80
2022/08/21 08:44:30;;;;;;;4.43;4.03;;;21.90;92.00;;;;;;5037172;28;21022;-82
2022/08/21 08:46:59;;;;;;;3.87;3.57;;;21.90;92.50;;;;;;5037936;28;20463;-81
2022/08/21 08:49:34;;;;;;;6.60;5.20;;;21.90;92.90;;;;;;5038944;28;20451;-84
2022/08/21 08:52:04;;;;;;;4.33;3.97;;;22.00;92.70;;;;;;5040097;28;20462;-83
2022/08/21 08:54:35;;;;;;;4.43;4.03;;;22.10;93.00;;;;;;5039092;28;20483;-84
2022/08/21 08:57:05;;;;;;;4.53;4.00;;;22.20;93.10;;;;;;5039112;28;20463;-85
2022/08/21 08:59:39;;;;;;;3.87;3.57;;;22.40;92.20;;;;;;5039232;28;20452;-84
2022/08/21 09:02:09;;;;;;;5.83;4.10;;;22.20;92.50;;;;;;5038657;28;20435;-82
2022/08/21 09:04:36;;;;;;;6.17;4.17;;;22.30;91.70;;;;;;5039422;28;20484;-82
2022/08/21 09:07:14;;;;;;;5.33;4.20;;;22.40;91.70;;;;;;5039253;28;20454;-82
2022/08/21 09:09:55;;;;;;;4.50;3.80;;;22.60;91.30;;;;;;5039241;28;20463;-82
2022/08/21 09:12:34;;;;;;;5.03;4.63;;;22.70;91.40;;;;;;5039371;28;20534;-82
2022/08/21 09:15:13;;;;;;;4.80;4.30;;;22.80;90.90;;;;;;5039995;28;20488;-80
2022/08/21 09:17:56;;;;;;;5.80;4.20;;;22.80;91.00;;;;;;5039775;28;20479;-84
2022/08/21 09:20:33;;;;;;;6.20;5.60;;;23.00;90.10;;;;;;5039432;28;20440;-84
2022/08/21 09:23:12;;;;;;;4.50;4.10;;;23.00;87.30;;;;;;5039117;28;20455;-84
2022/08/21 09:25:46;;;;;;;4.33;3.63;;;23.00;87.40;;;;;;5040231;28;20962;-84
2022/08/21 09:28:14;;;;;;;4.60;3.70;;;23.00;87.90;;;;;;5038647;28;20453;-84
2022/08/21 09:30:41;;;;;;;6.07;4.00;;;23.20;87.20;;;;;;5038294;28;20493;-84
2022/08/21 09:33:12;;;;;;;4.70;4.20;;;23.40;84.50;;;;;;5038378;28;20462;-83
2022/08/21 09:35:50;;;;;;;7.57;5.10;;;23.50;83.40;;;;;;5039319;28;20441;-84
2022/08/21 09:38:27;;;;;;;7.50;4.60;;;23.60;85.80;;;;;;5038777;28;20859;-84
2022/08/21 09:40:58;;;;;;;9.60;5.60;;;23.80;87.70;;;;;;5039112;28;20457;-83
2022/08/21 09:43:25;;;;;;;5.30;4.80;;;24.00;89.80;;;;;;5039222;28;20488;-84
2022/08/21 09:46:04;;;;;;;6.70;4.70;;;24.20;87.70;;;;;;5038377;28;20453;-84
2022/08/21 09:48:41;;;;;;;4.37;4.00;;;24.30;88.70;;;;;;5038850;28;20450;-84
2022/08/21 09:51:11;;;;;;;5.17;4.27;;;24.50;89.30;;;;;;5039030;28;20458;-84
2022/08/21 09:53:42;;;;;;;5.43;4.90;;;24.50;89.10;;;;;;5038290;28;20501;-84
2022/08/21 09:59:15;;;;;;;9.57;5.20;;;24.60;83.90;;;;;;5037837;28;20480;-81
2022/08/21 10:01:45;;;;;;;6.50;4.53;;;24.70;84.10;;;;;;5038514;28;20460;-82
2022/08/21 10:04:14;;;;;;;10.10;4.50;;;24.90;84.00;;;;;;5037915;28;20496;-82
2022/08/21 10:06:41;;;;;;;5.43;4.93;;;24.90;83.20;;;;;;5038519;28;20449;-82
2022/08/21 10:09:12;;;;;;;5.40;4.73;;;25.00;80.60;;;;;;5038085;28;20450;-82
2022/08/21 10:11:40;;;;;;;4.50;4.10;;;25.20;80.10;;;;;;5038417;28;20537;-82
2022/08/21 10:14:19;;;;;;;5.77;4.10;;;25.30;80.10;;;;;;5037890;28;20546;-82
2022/08/21 10:17:00;;;;;;;4.13;3.73;;;25.50;79.30;;;;;;5038544;28;20493;-82
2022/08/21 10:19:38;;;;;;;4.30;4.00;;;25.70;81.90;;;;;;5037807;28;20503;-82
2022/08/21 10:22:18;;;;;;;4.43;4.10;;;25.80;76.00;;;;;;5038784;28;20440;-82
2022/08/21 10:24:53;;;;;;;5.80;4.57;;;25.90;78.40;;;;;;5038961;28;20476;-82
2022/08/21 10:27:31;;;;;;;6.10;4.57;;;26.00;80.70;;;;;;5038477;28;20455;-82
2022/08/21 10:30:02;;;;;;;4.83;4.43;;;26.30;81.80;;;;;;5038319;28;20462;-83
2022/08/21 10:32:50;;;;;;;5.80;5.20;;;26.40;78.40;;;;;;5038256;28;20464;-83
2022/08/21 10:35:25;;;;;;;5.27;4.87;;;26.70;79.90;;;;;;5105670;22;20480;-83
2022/08/21 10:38:15;;;;;;;4.50;4.10;;;27.00;79.00;;;;;;5090481;28;20472;-82
2022/08/21 10:40:51;;;;;;;6.57;4.70;;;27.20;76.30;;;;;;5092511;28;20474;-83
2022/08/21 10:43:27;;;;;;;4.10;3.70;;;27.40;74.60;;;;;;5089267;28;20449;-83
2022/08/21 10:46:04;;;;;;;5.73;4.23;;;27.80;75.60;;;;;;5069515;28;20446;-83
2022/08/21 10:48:38;;;;;;;5.93;3.77;;;28.20;74.30;;;;;;5069431;28;20451;-82
2022/08/21 10:51:11;;;;;;;5.53;4.53;;;28.40;73.40;;;;;;5069679;28;20459;-83
2022/08/21 10:53:52;;;;;;;3.93;3.63;;;28.30;68.80;;;;;;5068932;28;20467;-83
2022/08/21 10:56:22;;;;;;;4.77;4.33;;;28.50;69.70;;;;;;5069521;28;20452;-83
2022/08/21 10:59:07;;;;;;;5.30;4.80;;;28.70;68.70;;;;;;5069427;28;20431;-83
2022/08/21 11:01:40;;;;;;;4.30;4.00;;;28.80;67.50;;;;;;5069325;28;20435;-83
2022/08/21 11:04:16;;;;;;;4.67;4.00;;;29.00;66.60;;;;;;5069853;28;20478;-83
2022/08/21 11:06:50;;;;;;;4.70;4.10;;;29.10;67.20;;;;;;5069369;28;20437;-83
2022/08/21 11:09:21;;;;;;;5.00;4.50;;;29.30;64.80;;;;;;5069352;28;20472;-83
2022/08/21 11:11:53;;;;;;;5.17;4.77;;;29.80;65.70;;;;;;5069520;28;20434;-83
2022/08/21 11:14:31;;;;;;;5.37;4.10;;;30.50;62.10;;;;;;5069135;28;20476;-83
2022/08/21 11:17:03;;;;;;;5.73;4.60;;;31.00;59.80;;;;;;5069291;28;20455;-83
2022/08/21 11:19:34;;;;;;;4.73;4.33;;;31.50;58.90;;;;;;5070255;28;20451;-83
2022/08/21 11:22:07;;;;;;;4.20;3.80;;;32.20;57.20;;;;;;5070057;28;20452;-83
2022/08/21 11:24:44;;;;;;;6.53;5.33;;;32.70;53.80;;;;;;5070155;28;20586;-83
2022/08/21 11:27:19;;;;;;;6.60;4.77;;;32.60;51.20;;;;;;5068994;28;20437;-83
2022/08/21 11:29:50;;;;;;;7.73;4.57;;;32.60;50.90;;;;;;5069007;28;20481;-83
2022/08/21 11:32:43;;;;;;;4.30;3.90;;;33.10;52.90;;;;;;5069452;28;20468;-83
2022/08/21 11:35:17;;;;;;;5.57;4.43;;;33.70;52.30;;;;;;5065254;28;20486;-83
2022/08/21 11:37:59;;;;;;;5.03;4.60;;;34.50;49.30;;;;;;5068888;28;20439;-84
2022/08/21 11:40:45;;;;;;;5.03;4.33;;;34.90;47.20;;;;;;5069157;28;20451;-83
2022/08/21 11:43:18;;;;;;;4.63;3.93;;;35.00;45.40;;;;;;5067779;28;20434;-83
2022/08/21 11:45:49;;;;;;;4.37;3.97;;;34.90;45.10;;;;;;5069326;28;20424;-83
2022/08/21 11:48:32;;;;;;;5.40;4.00;;;35.40;45.90;;;;;;5068688;28;20468;-83
2022/08/21 11:51:02;;;;;;;4.10;3.80;;;35.70;44.80;;;;;;5068861;28;20502;-83
2022/08/21 11:53:38;;;;;;;4.90;4.50;;;35.60;44.80;;;;;;5068812;28;20448;-83
2022/08/21 11:56:12;;;;;;;4.83;4.40;;;35.90;45.40;;;;;;5069218;28;20478;-83
2022/08/21 11:58:42;;;;;;;4.90;4.10;;;36.40;44.10;;;;;;5072265;28;20433;-83
2022/08/21 12:01:11;;;;;;;4.57;4.27;;;36.90;43.90;;;;;;5072397;28;20458;-84
2022/08/21 12:03:42;;;;;;;3.80;3.57;;;37.60;41.90;;;;;;5072898;28;20464;-84
2022/08/21 12:06:13;;;;;;;4.00;3.67;;;38.20;39.50;;;;;;5073201;28;20497;-84
2022/08/21 12:08:43;;;;;;;4.13;3.83;;;38.80;37.60;;;;;;5071937;28;20468;-84
2022/08/21 12:11:25;;;;;;;4.97;4.47;;;39.10;38.10;;;;;;5072597;28;20459;-84
2022/08/21 12:13:58;;;;;;;4.60;3.93;;;39.00;36.40;;;;;;5072817;28;20452;-84
2022/08/21 12:16:33;;;;;;;5.07;3.70;;;39.00;36.00;;;;;;5072186;28;20437;-84
2022/08/21 12:19:05;;;;;;;3.90;3.60;;;38.60;37.50;;;;;;5072072;28;20474;-83
2022/08/21 12:21:32;;;;;;;6.03;4.60;;;38.10;36.10;;;;;;5072125;28;20475;-84
2022/08/21 12:24:18;;;;;;;4.30;3.90;;;38.50;37.80;;;;;;5072093;28;20486;-84
2022/08/21 12:26:54;;;;;;;3.80;3.50;;;39.10;37.00;;;;;;5072535;28;20500;-84
2022/08/21 12:29:26;;;;;;;4.23;3.93;;;38.70;34.40;;;;;;5075121;28;20527;-84
2022/08/21 12:32:02;;;;;;;4.53;3.97;;;39.20;35.70;;;;;;5073836;28;20796;-84
2022/08/21 12:34:37;;;;;;;4.43;4.13;;;39.00;34.30;;;;;;5072044;28;20544;-83
2022/08/21 12:37:07;;;;;;;5.00;3.97;;;37.50;34.50;;;;;;5072763;28;20526;-84
2022/08/21 12:39:38;;;;;;;4.47;4.17;;;37.10;35.70;;;;;;5072748;28;20472;-84
2022/08/21 12:42:14;;;;;;;4.33;3.93;;;36.50;35.90;;;;;;5071631;28;20433;-84
2022/08/21 12:44:44;;;;;;;5.50;5.00;;;35.60;37.70;;;;;;5072333;28;20464;-84
2022/08/21 12:47:16;;;;;;;5.50;4.30;;;35.10;38.60;;;;;;5072245;28;20451;-84
2022/08/21 12:49:52;;;;;;;3.83;3.63;;;34.80;39.90;;;;;;5072063;28;20468;-83
2022/08/21 12:52:23;;;;;;;4.23;3.90;;;35.00;40.70;;;;;;5071850;28;20479;-84
2022/08/21 12:54:52;;;;;;;5.07;4.27;;;35.60;38.60;;;;;;5071695;28;20551;-84
2022/08/21 12:57:21;;;;;;;4.53;4.20;;;35.90;37.60;;;;;;5071759;28;20524;-84
2022/08/21 12:59:53;;;;;;;5.53;4.13;;;36.40;36.20;;;;;;5071953;28;20449;-83
2022/08/21 13:02:24;;;;;;;4.10;3.80;;;37.10;36.10;;;;;;5071209;28;20445;-84
2022/08/21 13:04:52;;;;;;;4.00;3.70;;;36.70;34.10;;;;;;5070070;28;20472;-84
2022/08/21 13:07:26;;;;;;;3.37;3.07;;;36.00;35.00;;;;;;5071142;28;20462;-84